Summit, New Jersey
Current Conditions -  °F | °C
As of 9:45 AM on Saturday 25 Oct 2014 (Local Time) from KMMU Reporting Station
Clear Clear  
Wind Chill: 13°   Ceiling: Unl
Heat Index: 13°   Visibility: 20mi
Dew Point:   Wind: 6mph
Humidity: 54%   Direction: 250°WSW
Pressure: 29.87"   Gusts: NA
Location:  40.72°N, 74.36°W
Report Text: KMMU 251345Z 25005KT 20SM SKC 13/04 A2987
Loading
Personal Weather Stations






























Interactive Weather Map
Tropical Storm Tracking
New forecast layout! Learn more

10-Day Weather Forecast

Advertisements
Track Severe Weather on mobile